Aérodrome :







RETROUVEZ-NOUS SUR...

 
LOGIN :

S'inscrire | Disclaimer

   EN    FR    IT 

 









Légende :    VFR   VFR Marginal   IFR   IFR Intensif   IFR Très Intensif
Visi : 
Plafond : 
>= 8 km
>= 3000ft
5 à 8 km
1000 à 3000 ft
1500m à 5 km
500 à 1000 ft
800 à 1500m
200 à 500 ft
< 800m
< 200 ft
Symboles :   Orages  Brouillard  Fortes neiges  Fortes précipitations  Vent > 20 kt






- Altitude de l'aérodrome : 192 ft
- Code IATA : BGR


KBGR - Bangor International

DERNIER METAR :
  • 151022Z 22013G22KT 10SM SCT024 BKN041 OVC048 07/03 A2905 RMK AO2 T00720028

METARs EXPIRÉS :
  • 151013Z 22012G24KT 10SM BKN024 BKN032 OVC039 07/03 A2903 RMK AO2 T00720028
  • 150953Z 23017G28KT 10SM SCT024 BKN030 BKN038 08/03 A2902 RMK AO2 PK WND 24031/0942 PRESRR SLP826 T00780033
  • 150853Z 19014G24KT 10SM BKN017 OVC021 11/08 A2897 RMK AO2 SLP810 T01060083 58008
  • 150822Z 19012KT 10SM SCT017 BKN023 OVC040 11/09 A2898 RMK AO2 T01110089
  • 150753Z 19011G19KT 10SM SCT017 BKN024 BKN037 11/09 A2899 RMK AO2 SLP817 T01110094

TAF KBGR
Valide du 15 à 07h jusqu'au 16 à 06h UTC


150707Z 1507/1606 19014G22KT P6SM BKN005 OVC019
FM150900 21014G23KT P6SM BKN022
FM151300 24015G28KT P6SM BKN050
FM152100 27020G36KT P6SM SCT060



MET'MAP, la Météo Aéronautique d'un coup d'oeil ! - Copyright ORBIFLY Décembre 2007 - Disclaimer

ORBIFLY MET'MAP TEAM :

Programmation & Développement : Alexandra Zaïnal
Sur une idée originale de : Baudouin d'Aumeries
Assistance à la programmation : Marc-Olivier Méhu
Soutien technique & logistique : Manuel Goepfert

Contact : metmap@orbifly.com




SOURCES & CREDITS :

   NOAA